createdAt,value
2023-03-18T07:53:28.436Z,5.03
2023-03-18T07:55:57.034Z,6.53
2023-03-18T07:58:26.594Z,4.45
2023-03-18T08:00:57.520Z,3.28
2023-03-18T08:03:28.012Z,3.75
2023-03-18T08:05:57.266Z,4.65
2023-03-18T08:08:25.899Z,4.53
2023-03-18T08:10:58.513Z,5.30
2023-03-18T08:13:27.290Z,5.80
2023-03-18T08:15:56.233Z,4.40
2023-03-18T08:18:24.376Z,5.20
2023-03-18T08:20:56.627Z,7.70
2023-03-18T08:23:25.644Z,6.60
2023-03-18T08:25:53.666Z,7.72
2023-03-18T08:28:21.818Z,5.82
2023-03-18T08:30:57.236Z,6.85
2023-03-18T08:33:25.849Z,8.77
2023-03-18T08:35:57.983Z,6.88
2023-03-18T08:38:26.985Z,7.53
2023-03-18T08:40:56.804Z,6.95
2023-03-18T08:43:25.649Z,10.32
2023-03-18T08:45:54.244Z,9.45
2023-03-18T08:48:23.481Z,12.77
2023-03-18T08:50:52.493Z,8.50
2023-03-18T08:53:20.477Z,9.65
2023-03-18T08:55:48.558Z,13.60
2023-03-18T08:58:17.301Z,13.02
2023-03-18T09:00:45.215Z,13.18
2023-03-18T09:03:15.931Z,12.75
2023-03-18T09:05:44.037Z,14.32
2023-03-18T09:08:11.929Z,12.57
2023-03-18T09:10:41.379Z,12.20
2023-03-18T09:13:09.238Z,11.63
2023-03-18T09:15:37.104Z,13.50
2023-03-18T09:18:12.130Z,9.00
2023-03-18T09:20:41.352Z,9.30
2023-03-18T09:23:10.372Z,10.23
2023-03-18T09:25:39.191Z,14.13
2023-03-18T09:28:08.306Z,12.48
2023-03-18T09:30:36.770Z,9.43
2023-03-18T09:33:06.879Z,11.85
2023-03-18T09:35:36.763Z,11.60
2023-03-18T09:38:04.847Z,12.82
2023-03-18T09:40:38.551Z,10.65
2023-03-18T09:43:32.228Z,13.02
2023-03-18T09:46:26.506Z,11.63
2023-03-18T09:49:02.121Z,11.82
2023-03-18T09:51:39.233Z,9.85
2023-03-18T09:54:36.467Z,12.53
2023-03-18T09:57:05.142Z,11.32
2023-03-18T09:59:38.250Z,13.82
2023-03-18T10:02:38.573Z,12.63
2023-03-18T10:05:18.193Z,16.63
2023-03-18T10:07:51.594Z,15.98
2023-03-18T10:10:49.100Z,14.00
2023-03-18T10:13:25.827Z,13.97
2023-03-18T10:15:56.996Z,15.77
2023-03-18T10:18:33.919Z,13.40
2023-03-18T10:21:20.383Z,15.00
2023-03-18T10:24:35.656Z,13.60
2023-03-18T10:27:35.571Z,14.77
2023-03-18T10:30:44.885Z,12.35
2023-03-18T10:33:28.911Z,12.40
2023-03-18T10:36:23.508Z,13.80
2023-03-18T10:38:53.953Z,14.50
2023-03-18T10:41:38.409Z,15.35
2023-03-18T10:44:27.512Z,13.52
2023-03-18T10:47:06.972Z,14.77
2023-03-18T10:49:42.988Z,16.25
2023-03-18T10:52:38.823Z,14.77
2023-03-18T10:55:18.990Z,15.05
2023-03-18T10:57:46.623Z,15.23
2023-03-18T11:00:33.975Z,14.02
2023-03-18T11:03:02.549Z,13.27
2023-03-18T11:05:35.435Z,13.15
2023-03-18T11:08:09.199Z,18.15
2023-03-18T11:10:45.718Z,13.55
2023-03-18T11:13:22.383Z,15.43
2023-03-18T11:15:52.091Z,15.98
2023-03-18T11:18:26.597Z,14.43
2023-03-18T11:21:01.198Z,13.15
2023-03-18T11:23:56.253Z,15.95
2023-03-18T11:26:45.873Z,12.30
2023-03-18T11:29:20.450Z,14.30
2023-03-18T11:31:59.875Z,11.95
2023-03-18T11:34:31.767Z,10.75
2023-03-18T11:37:10.849Z,13.48
2023-03-18T11:39:41.353Z,11.23
2023-03-18T11:42:22.564Z,11.90
2023-03-18T11:44:56.960Z,13.07
2023-03-18T11:47:30.131Z,11.75
2023-03-18T11:49:58.074Z,13.90
2023-03-18T11:52:28.641Z,15.50
2023-03-18T11:55:05.471Z,10.43
2023-03-18T11:58:03.390Z,10.48
2023-03-18T12:01:02.980Z,8.20
2023-03-18T12:03:57.428Z,8.77
2023-03-18T12:06:29.025Z,8.85
2023-03-18T12:09:18.730Z,8.93
2023-03-18T12:12:18.842Z,8.23
2023-03-18T12:15:09.726Z,6.88
2023-03-18T12:18:03.633Z,9.75
2023-03-18T12:20:49.208Z,8.18
2023-03-18T12:23:21.137Z,10.02
2023-03-18T12:26:05.489Z,8.27
2023-03-18T12:28:54.354Z,6.93
2023-03-18T12:31:59.470Z,9.10
2023-03-18T12:35:09.143Z,9.43
2023-03-18T12:37:45.997Z,6.75
2023-03-18T12:40:41.260Z,7.60
2023-03-18T12:43:37.904Z,6.68
2023-03-18T12:46:33.013Z,5.93
2023-03-18T12:49:28.614Z,8.73
2023-03-18T12:52:45.032Z,7.55
2023-03-18T12:55:31.221Z,7.05
2023-03-18T12:58:06.474Z,6.53
2023-03-18T13:00:44.908Z,5.68
2023-03-18T13:03:33.998Z,5.45
2023-03-18T13:06:20.488Z,6.40
2023-03-18T13:09:21.959Z,5.00
2023-03-18T13:12:19.805Z,8.85
2023-03-18T13:15:12.509Z,5.93
2023-03-18T13:17:42.606Z,4.03
2023-03-18T13:20:36.431Z,3.85
2023-03-18T13:23:29.316Z,5.35
2023-03-18T13:26:50.666Z,3.55
2023-03-18T13:29:43.451Z,6.43
2023-03-18T13:33:07.885Z,3.53
2023-03-18T13:36:16.937Z,4.30
2023-03-18T13:39:10.134Z,3.33
2023-03-18T13:42:02.999Z,3.83
2023-03-18T13:44:55.275Z,3.92
2023-03-18T13:47:24.534Z,3.50
2023-03-18T13:50:01.222Z,5.47
2023-03-18T13:52:37.074Z,3.67
2023-03-18T13:55:29.843Z,3.63
2023-03-18T13:58:25.851Z,4.70
2023-03-18T14:00:56.918Z,4.28
2023-03-18T14:03:46.570Z,4.35
2023-03-18T14:06:17.125Z,4.38
2023-03-18T14:11:19.379Z,4.10
2023-03-18T14:13:54.757Z,4.10
2023-03-18T14:16:28.444Z,4.93
2023-03-18T14:19:06.523Z,4.03
2023-03-18T14:21:34.899Z,3.58
2023-03-18T14:24:18.394Z,4.75
2023-03-18T14:27:05.814Z,3.58
2023-03-18T14:29:38.990Z,3.85
2023-03-18T14:32:37.308Z,3.28
2023-03-18T14:35:17.134Z,3.13
2023-03-18T14:38:13.180Z,3.57
2023-03-18T14:40:44.737Z,3.33
2023-03-18T14:43:43.539Z,2.97
2023-03-18T14:46:19.158Z,4.10
2023-03-18T14:48:53.161Z,3.38
2023-03-18T14:51:23.541Z,3.73
2023-03-18T14:54:03.776Z,4.20
2023-03-18T14:56:40.490Z,2.17
2023-03-18T14:59:15.195Z,3.00
2023-03-18T15:01:50.586Z,2.97
2023-03-18T15:04:25.276Z,2.50
2023-03-18T15:06:55.591Z,4.97
2023-03-18T15:09:27.493Z,2.85
2023-03-18T15:11:56.249Z,5.43
2023-03-18T15:14:32.450Z,2.80
2023-03-18T15:17:05.206Z,2.15
2023-03-18T15:19:33.221Z,2.25
2023-03-18T15:22:06.905Z,4.28
2023-03-18T15:24:35.019Z,2.00
2023-03-18T15:27:16.028Z,2.92
2023-03-18T15:29:59.156Z,2.03
2023-03-18T15:32:45.584Z,2.10
2023-03-18T15:35:23.332Z,2.25
2023-03-18T15:38:19.317Z,1.67
2023-03-18T15:40:53.379Z,1.77
2023-03-18T15:43:29.764Z,2.20
2023-03-18T15:46:05.965Z,6.10
2023-03-18T15:48:56.061Z,1.88
2023-03-18T15:51:47.702Z,2.58
2023-03-18T15:54:19.285Z,3.78
2023-03-18T15:56:49.155Z,1.65
2023-03-18T15:59:34.803Z,3.38
2023-03-18T16:02:04.236Z,4.78
2023-03-18T16:04:38.287Z,2.67
2023-03-18T16:07:19.048Z,2.88
2023-03-18T16:09:47.087Z,3.00
2023-03-18T16:12:21.791Z,2.03
2023-03-18T16:14:52.149Z,2.50
2023-03-18T16:17:22.181Z,3.83
2023-03-18T16:19:55.065Z,2.42
2023-03-18T16:22:23.196Z,4.22
2023-03-18T16:24:51.403Z,1.80
2023-03-18T16:27:39.192Z,4.43
2023-03-18T16:30:22.634Z,7.47
2023-03-18T16:32:51.264Z,3.28
2023-03-18T16:35:23.141Z,3.30
2023-03-18T16:37:51.628Z,1.58
2023-03-18T16:40:28.443Z,2.38
2023-03-18T16:42:56.734Z,2.08
2023-03-18T16:45:30.575Z,1.42
2023-03-18T16:48:05.479Z,2.97
2023-03-18T16:50:38.529Z,2.10
2023-03-18T16:53:28.269Z,2.28
2023-03-18T16:56:05.586Z,2.08
2023-03-18T16:58:35.736Z,7.90
2023-03-18T17:01:07.163Z,2.63
2023-03-18T17:03:36.869Z,3.03
2023-03-18T17:06:06.710Z,1.80
2023-03-18T17:08:36.530Z,2.70
2023-03-18T17:11:05.247Z,3.97
2023-03-18T17:13:37.816Z,3.35
2023-03-18T17:16:06.181Z,4.13
2023-03-18T17:18:34.308Z,3.78
2023-03-18T17:21:05.297Z,1.23
2023-03-18T17:26:02.854Z,1.27
2023-03-18T17:28:38.658Z,1.92
2023-03-18T17:31:07.494Z,1.67
2023-03-18T17:33:37.164Z,1.27
2023-03-18T17:36:07.241Z,1.25
2023-03-18T17:38:35.451Z,0.75
2023-03-18T17:41:07.326Z,1.42
2023-03-18T17:43:37.025Z,6.10
2023-03-18T17:46:05.987Z,1.40
2023-03-18T17:48:38.241Z,1.10
2023-03-18T17:51:17.002Z,1.40
2023-03-18T17:53:51.492Z,2.72
2023-03-18T17:56:20.445Z,1.38
2023-03-18T17:58:51.269Z,1.02
2023-03-18T18:01:24.933Z,0.90
2023-03-18T18:03:56.272Z,0.88
2023-03-18T18:06:29.280Z,0.68
2023-03-18T18:09:00.088Z,0.70
2023-03-18T18:11:45.255Z,1.42
2023-03-18T18:14:16.369Z,0.93
2023-03-18T18:16:44.917Z,0.88
2023-03-18T18:19:13.405Z,0.88
2023-03-18T18:21:43.306Z,1.88
2023-03-18T18:24:25.011Z,0.73
2023-03-18T18:26:53.368Z,0.82
2023-03-18T18:29:24.364Z,0.90
2023-03-18T18:31:52.853Z,0.75
2023-03-18T18:34:21.403Z,1.75
2023-03-18T18:36:50.659Z,1.55
2023-03-18T18:39:19.129Z,0.82
2023-03-18T18:41:47.242Z,1.58
2023-03-18T18:44:15.170Z,1.00
2023-03-18T18:46:43.171Z,1.10
2023-03-18T18:49:22.425Z,3.17
2023-03-18T18:51:53.234Z,1.50
2023-03-18T18:54:24.865Z,3.95
2023-03-18T18:56:53.349Z,3.35
2023-03-18T18:59:27.528Z,3.33
2023-03-18T19:01:56.786Z,1.98
2023-03-18T19:04:25.273Z,3.58
2023-03-18T19:06:53.785Z,3.95
2023-03-18T19:09:24.973Z,2.10
2023-03-18T19:14:27.574Z,3.35
2023-03-18T19:16:58.451Z,3.03
2023-03-18T19:19:33.280Z,1.92
2023-03-18T19:22:02.965Z,2.22
2023-03-18T19:24:33.632Z,4.10
2023-03-18T19:27:05.552Z,2.42
2023-03-18T19:29:33.911Z,1.88
2023-03-18T19:32:01.836Z,2.15
2023-03-18T19:34:32.368Z,3.42
2023-03-18T19:37:02.725Z,2.40
2023-03-18T19:39:30.778Z,2.33
2023-03-18T19:41:58.804Z,2.05
2023-03-18T19:44:27.214Z,2.17
2023-03-18T19:46:59.295Z,1.85
2023-03-18T19:49:34.975Z,2.00
2023-03-18T19:52:27.078Z,1.48
2023-03-18T19:54:56.621Z,2.53
2023-03-18T19:57:28.129Z,2.95
2023-03-18T19:59:57.978Z,1.50
2023-03-18T20:02:34.275Z,2.03
2023-03-18T20:05:16.519Z,1.30
2023-03-18T20:07:44.493Z,1.60
2023-03-18T20:10:13.957Z,1.92
2023-03-18T20:12:46.040Z,1.63
2023-03-18T20:15:21.674Z,6.25
2023-03-18T20:17:51.368Z,1.83
2023-03-18T20:20:22.859Z,2.30
2023-03-18T20:23:06.710Z,2.03
2023-03-18T20:25:42.146Z,3.65
2023-03-18T20:28:20.725Z,3.53
2023-03-18T20:30:52.680Z,2.30
2023-03-18T20:33:22.083Z,3.05
2023-03-18T20:35:54.332Z,2.20
2023-03-18T20:38:31.714Z,2.42
2023-03-18T20:41:00.349Z,3.92
2023-03-18T20:43:29.656Z,2.50
2023-03-18T20:45:59.650Z,3.30
2023-03-18T20:48:28.108Z,2.97
2023-03-18T20:50:56.317Z,6.35
2023-03-18T20:53:28.880Z,4.47
2023-03-18T20:55:57.257Z,4.68
2023-03-18T20:58:27.516Z,4.20
2023-03-18T21:00:55.682Z,4.57
2023-03-18T21:03:28.215Z,3.20
2023-03-18T21:05:59.000Z,3.85
2023-03-18T21:08:28.182Z,2.80
2023-03-18T21:10:59.074Z,5.35
2023-03-18T21:13:38.637Z,4.03
2023-03-18T21:16:12.864Z,2.88
2023-03-18T21:18:41.978Z,4.80
2023-03-18T21:21:31.031Z,2.78
2023-03-18T21:23:59.222Z,3.40
2023-03-18T21:26:27.122Z,3.42
2023-03-18T21:28:54.966Z,3.42
2023-03-18T21:31:29.310Z,3.95
2023-03-18T21:33:57.762Z,3.80
2023-03-18T21:36:26.030Z,5.07
2023-03-18T21:38:54.022Z,4.30
2023-03-18T21:41:27.053Z,4.80
2023-03-18T21:43:56.224Z,3.03
2023-03-18T21:46:26.921Z,4.73
2023-03-18T21:48:55.752Z,3.63
2023-03-18T21:51:39.247Z,3.72
2023-03-18T21:54:17.940Z,3.67
2023-03-18T21:56:45.907Z,2.88
2023-03-18T21:59:13.750Z,4.65
2023-03-18T22:01:41.705Z,4.38
2023-03-18T22:04:09.619Z,3.72
2023-03-18T22:06:37.580Z,5.03
2023-03-18T22:09:05.728Z,3.17
2023-03-18T22:11:33.742Z,3.28
2023-03-18T22:14:01.597Z,6.10
2023-03-18T22:16:29.754Z,2.40
2023-03-18T22:18:57.655Z,4.38
2023-03-18T22:21:28.409Z,3.10
2023-03-18T22:23:58.022Z,4.20
2023-03-18T22:26:26.056Z,4.80
2023-03-18T22:28:53.947Z,3.78
2023-03-18T22:31:25.317Z,3.30
2023-03-18T22:33:53.712Z,4.30
2023-03-18T22:36:22.222Z,3.10
2023-03-18T22:38:50.865Z,5.30
2023-03-18T22:41:31.160Z,3.58
2023-03-18T22:44:00.204Z,5.23
2023-03-18T22:46:28.370Z,4.47
2023-03-18T22:48:56.851Z,3.22
2023-03-18T22:51:28.683Z,3.53
2023-03-18T22:53:56.821Z,3.08
2023-03-18T22:56:24.752Z,3.03
2023-03-18T22:58:52.800Z,3.70
2023-03-18T23:01:28.075Z,4.88
2023-03-18T23:03:56.094Z,4.50
2023-03-18T23:06:24.755Z,3.75
2023-03-18T23:08:52.693Z,4.07
2023-03-18T23:11:20.724Z,6.57
2023-03-18T23:13:50.166Z,6.18
2023-03-18T23:16:21.677Z,6.95
2023-03-18T23:18:50.443Z,7.13
2023-03-18T23:21:21.058Z,4.03
2023-03-18T23:23:49.655Z,6.22
2023-03-18T23:26:18.004Z,7.07
2023-03-18T23:28:46.151Z,5.88
2023-03-18T23:31:15.401Z,6.53
2023-03-18T23:33:44.081Z,6.55
2023-03-18T23:36:12.619Z,8.88
2023-03-18T23:38:41.454Z,6.05
2023-03-18T23:41:09.338Z,7.45
2023-03-18T23:43:37.231Z,9.48
2023-03-18T23:46:05.576Z,7.05
2023-03-18T23:48:33.454Z,4.95
2023-03-18T23:51:01.324Z,6.72
2023-03-18T23:53:29.386Z,9.88
2023-03-18T23:55:57.402Z,5.22
2023-03-18T23:58:25.782Z,6.18
